Goldfield, Nevada Weather observations

Data are for observation ending at time listed.
 Day   Time    Ave.   Ave.  Ave.  Vector   Max.   Stn.    Total    Solar   Ave.  
  of    of     Air    Rel.  Wind   Wind    Wind   Baro.  Precip.   Rad.    Soil  
Year   Day     Temp.  Hum.  Speed  Dir.    Gust   Pres.                    Temp. 
2014   (PST)    F      %     mph   deg.    mph     mb.     in.     W/m2     F   
------------------------------------------------------------------------------
 326    0:40   42.9    38    6.5   170      8.6   828.2    0.00       0    41.3
 326    0:50   42.9    38    4.3   192      8.8   828.5    0.00       0    41.3
 326    1:00   42.6    38    7.2   195      9.4   828.6    0.00       0    41.2
 326    1:10   43.4    36    8.4   197     12.1   828.6    0.00       0    41.1
 326    1:20   44.5    35    8.4   198     12.9   828.7    0.00       0    41.1
 326    1:30   43.1    37    1.7   231      4.4   828.8    0.00       0    41.2
 326    1:40   41.8    38    6.1   177      9.9   828.9    0.00       0    41.0
 326    1:50   42.2    37    2.5   226      7.6   829.0    0.00       0    41.2
 326    2:00   41.9    37    2.4   241      6.4   828.9    0.00       0    41.1
 326    2:10   40.9    39    3.0    57      5.7   828.9    0.00       0    41.1
 326    2:20   40.7    40    3.0    50      5.5   829.0    0.00       0    41.0
 326    2:30   40.7    40    3.8    74      6.1   828.9    0.00       0    41.0
 326    2:40   41.2    39    4.2   110      7.1   828.8    0.00       0    40.9
 326    2:50   40.4    40    2.4    99      4.4   828.8    0.00       0    40.9
 326    3:00   39.0    41    2.9   141      7.8   828.7    0.00       0    41.0
 326    3:10   39.9    40    6.1   141      8.0   828.6    0.00       0    40.8
 326    3:20   39.7    41    3.8   136      6.3   828.7    0.00       0    40.9
 326    3:30   40.2    41    4.8   113      8.8   828.5    0.00       0    40.7
 326    3:40   40.4    40    5.7   138     13.0   828.5    0.00       0    40.8
 326    3:50   41.1    40   11.0   165     17.2   828.6    0.00       0    40.6
 326    4:00   42.0    39   12.9   176     16.3   828.4    0.00       0    40.6
 326    4:10   41.8    39   14.0   179     17.0   828.3    0.00       0    40.6
 326    4:20   42.0    38   13.4   180     15.6   828.3    0.00       0    40.5
 326    4:30   42.7    38   12.7   184     16.1   828.2    0.00       0    40.6
 326    4:40   42.9    38   12.6   184     16.6   827.9    0.00       0    40.6
 326    4:50   42.3    38   11.8   168     15.3   827.8    0.00       0    40.5
 326    5:00   41.4    40   10.6   156     14.8   827.8    0.00       0    40.6
 326    5:10   41.6    39   14.5   176     18.3   827.8    0.00       0    40.7
 326    5:20   41.8    39   14.0   177     17.3   828.0    0.00       0    40.6
 326    5:30   41.5    39   13.6   170     17.4   828.0    0.00       0    40.6
 326    5:40   40.9    40   12.3   169     16.4   827.9    0.00       0    40.6
 326    5:50   40.6    41   10.2   154     14.0   827.5    0.00       0    40.6
 326    6:00   40.2    41   10.7   161     14.9   827.3    0.00       0    40.6
 326    6:10   40.4    41   11.8   152     16.0   827.5    0.00       0    40.7
 326    6:20   41.1    40   12.1   148     17.3   827.5    0.00       0    40.6
 326    6:30   41.2    40   13.8   165     21.9   827.7    0.00       2    40.6
 326    6:40   41.5    40   18.1   177     25.1   827.7    0.00       4    40.6
 326    6:50   42.0    40   19.2   177     26.7   827.2    0.00       9    40.6
 326    7:00   41.6    40   18.0   183     24.8   827.1    0.00      32    40.6
 326    7:10   42.2    40   18.9   188     27.6   827.2    0.00      58    40.6
 326    7:20   42.8    40   19.3   183     25.1   827.1    0.00      60    40.6
 326    7:30   43.0    40   20.3   184     27.5   827.0    0.00      59    40.7
 326    7:40   42.8    40   20.0   179     25.8   827.0    0.00      61    40.7
 326    7:50   42.9    40   18.7   176     24.5   827.2    0.00      95    40.7
 326    8:00   43.5    39   16.5   176     22.9   827.4    0.00     149    40.8
 326    8:10   44.5    38   12.4   168     21.6   827.5    0.00     187    40.8
 326    8:20   45.0    38   10.8   132     17.6   827.6    0.00     237    40.8
 326    8:30   45.5    37   10.9   111     17.0   827.6    0.00     293    40.9
 326    8:40   45.9    36   10.3   114     20.1   827.8    0.00     310    41.0
 326    8:50   46.3    36   10.8   116     18.2   827.8    0.00     306    41.0
 326    9:00   46.0    36   12.1   131     17.7   827.5    0.00     229    41.1
 326    9:10   46.0    36   14.0   143     21.0   827.5    0.00     336    41.2
 326    9:20   46.4    36   15.4   142     23.8   827.5    0.00     263    41.4
 326    9:30   46.7    35   13.0   167     21.1   827.6    0.00     266    41.4
 326    9:40   47.7    34   13.9   137     20.7   827.5    0.00     424    41.5
 326    9:50   47.4    35   14.9   130     21.4   827.5    0.00     413    41.6
 326   10:00   47.6    34   15.7   137     22.1   827.3    0.00     410    41.7
 326   10:10   48.0    34   15.7   139     22.3   827.1    0.00     441    41.8
 326   10:20   48.7    33   15.8   138     22.9   826.9    0.00     501    41.9
 326   10:30   49.1    33   15.0   142     20.3   826.6    0.00     437    42.0
 326   10:40   49.4    32   15.9   140     21.3   826.7    0.00     513    42.1
 326   10:50   50.3    31   15.2   140     23.1   826.6    0.00     519    42.2
 326   11:00   51.0    31   16.4   152     23.6   826.4    0.00     529    42.3
 326   11:10   52.5    29   14.7   154     25.6   826.0    0.00     529    42.3
 326   11:20   52.6    29   16.9   163     26.7   825.8    0.00     529    42.4
 326   11:30   52.9    29   17.4   163     25.8   825.7    0.00     532    42.5
 326   11:40   52.7    29   18.2   167     25.7   825.5    0.00     532    42.7
 326   11:50   53.3    28   17.5   162     25.6   825.2    0.00     531    42.8
 326   12:00   53.8    28   15.7   173     27.9   825.5    0.00     529    42.9
 326   12:10   53.8    27   16.7   169     25.0   825.5    0.00     531    43.1
 326   12:20   54.3    26   16.3   168     24.0   825.3    0.00     536    43.1
 326   12:30   54.6    27   15.1   159     24.0   825.0    0.00     509    43.3
 326   12:40   54.2    27   15.1   153     22.1   824.8    0.00     502    43.5
 326   12:50   55.0    26   13.7   154     20.2   824.8    0.00     518    43.6
 326   13:00   55.2    26   16.3   163     23.5   824.6    0.00     538    43.8
 326   13:10   55.7    26   17.1   172     23.8   824.5    0.00     490    44.0
 326   13:20   56.4    26   16.3   184     22.9   824.6    0.00     453    44.2
 326   13:30   56.5    26   15.8   174     23.5   824.6    0.00     448    44.4
 326   13:40   56.7    25   15.6   177     22.2   824.7    0.00     412    44.6
 326   13:50   56.8    25   15.0   167     21.1   824.7    0.00     341    44.8
 326   14:00   56.4    26   13.6   168     19.6   824.5    0.00     243    45.0
 326   14:10   56.6    26   12.8   148     20.8   824.3    0.00     391    45.2
 326   14:20   57.0    25   12.9   155     18.4   824.2    0.00     328    45.4
 326   14:30   56.8    26   13.9   151     20.8   824.4    0.00     317    45.5
 326   14:40   56.4    26   12.0   145     18.9   824.4    0.00     360    45.7
 326   14:50   56.2    26   12.9   140     18.3   824.3    0.00     276    45.9
 326   15:00   55.6    26   12.0   151     20.5   824.1    0.00     132    46.0
 326   15:10   54.5    28   13.5   151     19.7   824.3    0.00     144    46.2
 326   15:20   54.4    28   14.6   154     20.1   824.3    0.00     162    46.2
 326   15:30   53.2    29   16.0   158     23.0   824.3    0.00      60    46.4
 326   15:40   53.0    30   13.7   174     20.0   824.5    0.00      86    46.6
 326   15:50   52.8    30   13.8   178     18.7   824.5    0.00      62    46.6
 326   16:00   52.6    30   12.2   178     19.9   824.2    0.00      39    46.7
 326   16:10   52.3    31   13.2   188     17.8   824.4    0.00      24    46.9
 326   16:20   51.3    32   11.3   189     15.3   824.5    0.00      27    46.8
 326   16:30   51.8    29   10.1   236     22.5   824.8    0.00      26    46.8
 326   16:40   57.8    17   18.5   273     34.8   824.7    0.00      16    46.9
 326   16:50   58.6    17   19.5   274     30.5   824.6    0.00       6    46.9
 326   17:00   58.2    18   19.9   278     29.6   824.5    0.00       0    46.9
 326   17:10   57.8    18   17.8   276     27.8   824.7    0.00       0    46.9
 326   17:20   57.3    17   17.3   270     32.4   824.7    0.00       0    46.9
 326   17:30   56.7    16   17.7   274     29.5   824.8    0.00       0    47.0
 326   17:40   56.3    16   19.3   274     29.5   824.9    0.00       0    47.0
 326   17:50   55.6    16   15.5   281     25.0   825.2    0.00       0    47.2
 326   18:00   54.8    16   13.9   280     21.9   825.3    0.00       0    47.1
 326   18:10   54.2    16   13.9   277     22.4   825.3    0.00       0    47.1
 326   18:20   53.4    17   14.4   284     24.3   825.7    0.00       0    47.1
 326   18:30   52.8    18   14.6   287     24.3   825.8    0.00       0    47.2
 326   18:40   52.3    20   13.3   289     20.6   826.0    0.00       0    47.1
 326   18:50   51.6    22   12.0   301     18.8   826.2    0.00       0    47.2
 326   19:00   50.8    25   13.5   294     22.1   826.4    0.00       0    47.1
 326   19:10   50.4    27   14.7   294     22.9   826.6    0.00       0    47.1
 326   19:20   49.6    31   16.0   305     27.1   826.9    0.00       0    47.1
 326   19:30   46.4    51   21.1   313     30.5   827.2    0.00       0    47.0
 326   19:40   45.2    56   21.5   314     31.4   827.5    0.00       0    47.0
 326   19:50   44.6    58   20.1   312     28.5   827.7    0.00       0    46.9
 326   20:00   44.1    59   21.7   316     31.9   827.9    0.00       1    46.9
 326   20:10   43.4    60   21.8   316     33.3   828.0    0.00       1    46.9
 326   20:20   42.7    60   19.5   313     29.1   828.2    0.00       1    46.8
 326   20:30   41.7    60   20.4   316     31.1   828.4    0.00       1    46.7
 326   20:40   41.2    59   17.6   312     25.4   828.6    0.00       0    46.7
 326   20:50   41.0    56   17.0   311     24.5   828.8    0.00       0    46.6
 326   21:00   40.6    56   16.6   306     22.3   829.3    0.00       0    46.4
 326   21:10   40.3    54   16.2   305     25.6   829.5    0.00       0    46.3
 326   21:20   40.4    54   17.0   304     23.8   829.6    0.00       0    46.1
 326   21:30   40.5    55   16.6   303     26.7   829.7    0.00       0    46.1
 326   21:40   40.3    55   16.3   302     23.2   829.9    0.00       0    46.0
 326   21:50   40.1    54   16.4   298     23.3   830.0    0.00       0    46.1
 326   22:00   39.7    54   15.0   298     21.9   830.1    0.00       0    45.8
 326   22:10   39.6    55   16.5   297     21.9   830.2    0.00       0    45.7
 326   22:20   39.5    55   15.9   307     22.6   830.4    0.00       0    45.6
 326   22:30   39.2    56   20.9   304     30.0   830.4    0.00       0    45.3
 326   22:40   38.9    57   22.4   302     31.3   830.4    0.00       0    45.5
 326   22:50   38.3    58   20.7   298     27.5   830.4    0.00       0    45.2
 326   23:00   38.0    57   19.1   296     27.3   830.4    0.00       0    45.1
 326   23:10   37.5    55   18.0   295     26.0   830.4    0.00       0    45.1
 326   23:20   37.6    52   23.8   304     31.9   830.2    0.00       0    45.0
 326   23:30   37.7    50   22.7   302     30.6   830.3    0.00       0    44.9
 326   23:40   37.6    48   23.3   301     31.9   830.3    0.00       0    44.8
 326   23:50   37.4    48   22.7   300     31.6   830.4    0.00       0    44.7
 327    0:00   37.3    48   23.0   304     31.6   830.4    0.00       0    44.6
 327    0:10   37.3    48   22.5   306     30.0   830.5    0.00       0    44.3
 327    0:20   37.1    49   23.2   308     32.8   830.7    0.00       0    44.3
 327    0:30   37.3    48   23.9   311     34.3   830.7    0.00       0    44.2

Return to Goldfield, Nevada graphs page.


Western Regional Climate Center,wrcc@dri.edu